createdAt,value
2022-11-30T00:01:18.379Z,91.03
2022-11-30T00:03:45.045Z,82.57
2022-11-30T00:06:13.767Z,78.13
2022-11-30T00:08:40.732Z,76.37
2022-11-30T00:11:11.713Z,72.10
2022-11-30T00:13:38.385Z,69.30
2022-11-30T00:16:05.562Z,75.17
2022-11-30T00:18:32.692Z,72.10
2022-11-30T00:21:03.819Z,69.47
2022-11-30T00:23:34.645Z,64.80
2022-11-30T00:26:06.189Z,71.57
2022-11-30T00:28:34.301Z,70.50
2022-11-30T00:31:05.006Z,74.30
2022-11-30T00:33:36.255Z,66.83
2022-11-30T00:36:06.088Z,66.33
2022-11-30T00:38:33.496Z,62.43
2022-11-30T00:41:01.909Z,66.03
2022-11-30T00:43:29.120Z,60.27
2022-11-30T00:45:57.400Z,64.00
2022-11-30T00:48:24.224Z,66.50
2022-11-30T00:50:51.472Z,69.80
2022-11-30T00:53:18.863Z,73.63
2022-11-30T00:55:45.937Z,70.07
2022-11-30T00:58:13.098Z,67.43
2022-11-30T01:00:41.459Z,75.77
2022-11-30T01:03:08.623Z,70.83
2022-11-30T01:05:35.619Z,68.97
2022-11-30T01:08:03.224Z,72.90
2022-11-30T01:10:29.757Z,65.23
2022-11-30T01:12:56.182Z,73.30
2022-11-30T01:15:23.044Z,71.27
2022-11-30T01:17:49.549Z,75.73
2022-11-30T01:20:16.170Z,76.07
2022-11-30T01:22:42.776Z,81.03
2022-11-30T01:25:09.339Z,79.83
2022-11-30T01:27:35.862Z,74.60
2022-11-30T01:30:03.247Z,75.10
2022-11-30T01:32:29.713Z,79.10
2022-11-30T01:34:56.164Z,74.67
2022-11-30T01:37:23.091Z,76.10
2022-11-30T01:39:49.552Z,70.37
2022-11-30T01:42:19.651Z,74.70
2022-11-30T01:44:55.879Z,73.13
2022-11-30T01:47:27.212Z,75.73
2022-11-30T01:50:01.344Z,69.70
2022-11-30T01:52:35.324Z,71.03
2022-11-30T01:55:20.734Z,76.83
2022-11-30T01:58:05.268Z,75.93
2022-11-30T02:00:31.852Z,75.30
2022-11-30T02:03:23.290Z,72.20
2022-11-30T02:05:49.879Z,74.97
2022-11-30T02:08:17.477Z,70.33
2022-11-30T02:10:49.762Z,66.57
2022-11-30T02:13:44.551Z,66.63
2022-11-30T02:16:25.162Z,65.43
2022-11-30T02:19:03.948Z,66.77
2022-11-30T02:21:45.700Z,66.70
2022-11-30T02:24:20.713Z,62.87
2022-11-30T02:26:56.052Z,66.10
2022-11-30T02:29:53.016Z,59.47
2022-11-30T02:32:27.610Z,68.87
2022-11-30T02:34:56.877Z,66.87
2022-11-30T02:37:25.814Z,58.00
2022-11-30T02:39:52.259Z,65.00
2022-11-30T02:42:18.708Z,58.70
2022-11-30T02:44:48.560Z,58.73
2022-11-30T02:47:22.547Z,58.90
2022-11-30T02:50:01.181Z,55.73
2022-11-30T02:52:30.598Z,55.90
2022-11-30T02:55:02.395Z,55.27
2022-11-30T02:57:28.831Z,55.87
2022-11-30T02:59:56.260Z,48.30
2022-11-30T03:02:22.792Z,51.77
2022-11-30T03:04:49.384Z,49.83
2022-11-30T03:07:15.969Z,53.30
2022-11-30T03:09:43.551Z,53.20
2022-11-30T03:12:10.045Z,50.93
2022-11-30T03:14:36.508Z,49.77
2022-11-30T03:17:03.076Z,51.37
2022-11-30T03:19:29.705Z,46.30
2022-11-30T03:21:56.169Z,51.83
2022-11-30T03:24:22.666Z,51.03
2022-11-30T03:26:49.121Z,47.37
2022-11-30T03:29:15.624Z,48.57
2022-11-30T03:31:42.094Z,48.03
2022-11-30T03:34:08.709Z,48.20
2022-11-30T03:36:35.251Z,44.73
2022-11-30T03:39:02.443Z,48.40
2022-11-30T03:41:29.206Z,45.53
2022-11-30T03:43:56.063Z,42.70
2022-11-30T03:46:23.519Z,46.10
2022-11-30T03:48:50.039Z,40.83
2022-11-30T03:51:16.477Z,39.33
2022-11-30T03:53:42.984Z,42.17
2022-11-30T03:56:10.774Z,41.23
2022-11-30T03:58:38.204Z,42.43
2022-11-30T04:01:23.637Z,42.80
2022-11-30T04:03:51.640Z,43.73
2022-11-30T04:06:19.177Z,42.83
2022-11-30T04:08:45.922Z,42.97
2022-11-30T04:11:12.786Z,38.83
2022-11-30T04:13:40.226Z,47.43
2022-11-30T04:16:07.453Z,44.97
2022-11-30T04:18:35.883Z,41.70
2022-11-30T04:21:03.769Z,43.23
2022-11-30T04:23:33.602Z,43.73
2022-11-30T04:26:04.227Z,45.90
2022-11-30T04:28:31.044Z,46.20
2022-11-30T04:31:00.371Z,44.13
2022-11-30T04:33:28.324Z,41.83
2022-11-30T04:35:57.616Z,42.07
2022-11-30T04:38:25.428Z,41.67
2022-11-30T04:40:52.252Z,45.10
2022-11-30T04:43:18.904Z,41.20
2022-11-30T04:45:46.204Z,44.40
2022-11-30T04:48:13.444Z,42.57
2022-11-30T04:50:40.089Z,43.33
2022-11-30T04:53:07.285Z,44.23
2022-11-30T04:55:33.897Z,44.23
2022-11-30T04:58:00.635Z,44.13
2022-11-30T05:00:27.463Z,42.03
2022-11-30T05:02:56.550Z,44.57
2022-11-30T05:05:23.307Z,43.53
2022-11-30T05:07:59.778Z,45.57
2022-11-30T05:10:28.123Z,43.37
2022-11-30T05:12:57.258Z,41.20
2022-11-30T05:15:23.748Z,44.57
2022-11-30T05:17:50.251Z,42.37
2022-11-30T05:20:16.855Z,40.87
2022-11-30T05:22:43.468Z,42.10
2022-11-30T05:25:10.483Z,41.83
2022-11-30T05:27:37.484Z,40.43
2022-11-30T05:30:05.165Z,38.30
2022-11-30T05:32:31.630Z,38.77
2022-11-30T05:34:58.773Z,41.40
2022-11-30T05:37:25.742Z,40.27
2022-11-30T05:39:52.186Z,43.60
2022-11-30T05:42:18.658Z,37.50
2022-11-30T05:44:45.729Z,43.20
2022-11-30T05:47:12.525Z,45.53
2022-11-30T05:49:39.109Z,43.23
2022-11-30T05:52:05.565Z,44.40
2022-11-30T05:54:33.865Z,52.20
2022-11-30T05:57:00.568Z,50.97
2022-11-30T05:59:27.129Z,44.80
2022-11-30T06:01:54.329Z,51.80
2022-11-30T06:04:21.705Z,45.87
2022-11-30T06:06:49.502Z,51.57
2022-11-30T06:09:16.854Z,49.53
2022-11-30T06:11:43.401Z,62.00
2022-11-30T06:14:09.939Z,58.50
2022-11-30T06:16:39.422Z,51.23
2022-11-30T06:19:06.069Z,68.37
2022-11-30T06:21:32.712Z,75.30
2022-11-30T06:23:59.218Z,71.47
2022-11-30T06:26:26.164Z,58.23
2022-11-30T06:28:52.614Z,66.10
2022-11-30T06:31:19.168Z,59.87
2022-11-30T06:33:45.642Z,59.70
2022-11-30T06:36:12.281Z,62.53
2022-11-30T06:38:38.784Z,62.83
2022-11-30T06:41:07.566Z,65.60
2022-11-30T06:43:35.854Z,63.80
2022-11-30T06:46:03.626Z,62.23
2022-11-30T06:48:30.763Z,66.63
2022-11-30T06:50:58.528Z,72.73
2022-11-30T06:53:25.303Z,68.13
2022-11-30T06:55:52.211Z,67.47
2022-11-30T06:58:19.229Z,66.43
2022-11-30T07:00:45.806Z,76.33
2022-11-30T07:03:12.863Z,80.93
2022-11-30T07:05:42.882Z,76.57
2022-11-30T07:08:10.210Z,74.07
2022-11-30T07:10:41.152Z,69.23
2022-11-30T07:13:10.703Z,63.83
2022-11-30T07:15:37.954Z,64.57
2022-11-30T07:18:04.427Z,64.40
2022-11-30T07:20:31.027Z,66.97
2022-11-30T07:22:57.756Z,69.00
2022-11-30T07:25:43.527Z,59.80
2022-11-30T07:28:09.972Z,62.00
2022-11-30T07:30:36.471Z,60.00
2022-11-30T07:33:02.909Z,59.37
2022-11-30T07:35:29.412Z,62.63
2022-11-30T07:37:55.998Z,63.53
2022-11-30T07:40:22.420Z,63.30
2022-11-30T07:42:55.309Z,62.33
2022-11-30T07:45:21.760Z,68.23
2022-11-30T07:47:48.210Z,65.90
2022-11-30T07:50:14.639Z,72.10
2022-11-30T07:52:41.115Z,60.33
2022-11-30T07:55:08.144Z,68.00
2022-11-30T07:57:34.569Z,69.63
2022-11-30T08:00:01.083Z,66.17
2022-11-30T08:02:27.927Z,65.37
2022-11-30T08:04:57.861Z,66.27
2022-11-30T08:07:24.436Z,66.63
2022-11-30T08:09:51.503Z,65.07
2022-11-30T08:12:17.936Z,64.97
2022-11-30T08:15:18.193Z,67.33
2022-11-30T08:17:31.981Z,75.13
2022-11-30T08:19:58.647Z,72.77
2022-11-30T08:22:25.185Z,70.27
2022-11-30T08:24:51.817Z,67.03
2022-11-30T08:27:18.461Z,67.90
2022-11-30T08:29:44.982Z,67.17
2022-11-30T08:32:11.428Z,68.90
2022-11-30T08:34:37.866Z,70.00
2022-11-30T08:37:04.434Z,66.83
2022-11-30T08:39:34.049Z,65.07
2022-11-30T08:42:01.968Z,70.07
2022-11-30T08:44:29.678Z,62.50
2022-11-30T08:46:56.374Z,69.83
2022-11-30T08:49:24.464Z,68.07
2022-11-30T08:54:44.737Z,65.90
2022-11-30T08:57:11.284Z,66.50
2022-11-30T08:59:38.112Z,69.37
2022-11-30T09:02:04.620Z,72.47
2022-11-30T09:04:31.344Z,70.17
2022-11-30T09:06:59.358Z,65.37
2022-11-30T09:09:26.450Z,78.83
2022-11-30T09:11:52.950Z,68.67
2022-11-30T09:14:19.411Z,78.57
2022-11-30T09:16:45.875Z,72.10
2022-11-30T09:19:12.415Z,73.10
2022-11-30T09:21:39.016Z,72.93
2022-11-30T09:24:05.724Z,75.00
2022-11-30T09:26:32.344Z,78.80
2022-11-30T09:28:58.855Z,79.30
2022-11-30T09:31:26.923Z,73.83
2022-11-30T09:33:56.117Z,75.60
2022-11-30T09:36:27.037Z,73.03
2022-11-30T09:38:54.579Z,79.80
2022-11-30T09:41:57.492Z,73.10
2022-11-30T09:44:35.596Z,79.70
2022-11-30T09:47:08.083Z,82.90
2022-11-30T09:49:39.427Z,77.53
2022-11-30T09:52:13.253Z,84.37
2022-11-30T09:54:43.086Z,82.03
2022-11-30T09:57:32.174Z,87.23
2022-11-30T10:00:06.182Z,81.97
2022-11-30T10:02:39.449Z,86.83
2022-11-30T10:05:14.715Z,83.23
2022-11-30T10:08:12.324Z,85.10
2022-11-30T10:10:45.037Z,75.43
2022-11-30T10:13:36.001Z,84.57
2022-11-30T10:16:02.867Z,81.17
2022-11-30T10:18:41.655Z,79.63
2022-11-30T10:21:26.939Z,84.43
2022-11-30T10:24:26.511Z,82.63
2022-11-30T10:26:55.410Z,81.37
2022-11-30T10:29:30.142Z,83.40
2022-11-30T10:32:01.179Z,87.53
2022-11-30T10:34:36.039Z,86.07
2022-11-30T10:37:14.851Z,86.17
2022-11-30T10:39:58.860Z,89.03
2022-11-30T10:42:35.092Z,83.13
2022-11-30T10:45:10.425Z,91.50
2022-11-30T10:47:43.325Z,87.77
2022-11-30T10:50:14.977Z,92.20
2022-11-30T10:52:51.254Z,82.00
2022-11-30T10:55:21.322Z,86.07
2022-11-30T10:57:50.972Z,86.13
2022-11-30T11:00:18.249Z,87.57
2022-11-30T11:02:47.875Z,89.13
2022-11-30T11:05:23.787Z,89.80
2022-11-30T11:08:17.850Z,89.20
2022-11-30T11:10:52.193Z,88.73
2022-11-30T11:13:40.654Z,86.67
2022-11-30T11:16:13.160Z,88.80
2022-11-30T11:18:53.942Z,90.93
2022-11-30T11:21:22.600Z,89.83
2022-11-30T11:23:52.640Z,85.93
2022-11-30T11:26:30.310Z,92.60
2022-11-30T11:29:00.886Z,85.40
2022-11-30T11:31:35.121Z,86.27
2022-11-30T11:34:05.621Z,91.87
2022-11-30T11:36:34.027Z,88.43
2022-11-30T11:39:00.988Z,89.77
2022-11-30T11:41:29.211Z,91.00
2022-11-30T11:44:06.213Z,89.47
2022-11-30T11:46:36.357Z,89.73
2022-11-30T11:49:05.008Z,91.13
2022-11-30T11:51:31.764Z,93.27
2022-11-30T11:54:07.230Z,90.77
2022-11-30T11:56:36.755Z,89.00
2022-11-30T11:59:09.304Z,92.47
2022-11-30T12:02:02.101Z,94.17
2022-11-30T12:05:11.296Z,89.30
2022-11-30T12:07:37.797Z,91.03
2022-11-30T12:10:50.561Z,92.07
2022-11-30T12:13:33.165Z,86.33
2022-11-30T12:16:26.027Z,111.13
2022-11-30T12:19:17.440Z,93.93
2022-11-30T12:21:46.916Z,95.53
2022-11-30T12:24:16.159Z,94.80
2022-11-30T12:27:07.375Z,96.53
2022-11-30T12:29:52.864Z,97.53
2022-11-30T12:32:47.279Z,96.33
2022-11-30T12:35:33.372Z,98.93
2022-11-30T12:38:41.561Z,98.93
2022-11-30T12:41:13.937Z,92.93
2022-11-30T12:43:55.712Z,97.43
2022-11-30T12:46:40.247Z,89.57
2022-11-30T12:49:26.619Z,91.97
2022-11-30T12:52:35.177Z,93.70
2022-11-30T12:55:20.642Z,93.93
2022-11-30T12:58:19.240Z,97.90
2022-11-30T13:00:59.307Z,95.33
2022-11-30T13:03:29.096Z,99.10
2022-11-30T13:06:05.653Z,91.83
2022-11-30T13:08:49.123Z,103.93
2022-11-30T13:11:21.587Z,93.40
2022-11-30T13:13:52.482Z,101.20
2022-11-30T13:16:22.195Z,96.87
2022-11-30T13:18:51.367Z,93.00
2022-11-30T13:21:28.862Z,105.70
2022-11-30T13:24:08.637Z,106.23
2022-11-30T13:26:55.861Z,102.37
2022-11-30T13:29:40.853Z,103.13
2022-11-30T13:32:41.067Z,101.93
2022-11-30T13:35:29.394Z,111.97
2022-11-30T13:38:34.679Z,105.90
2022-11-30T13:40:59.478Z,104.43
2022-11-30T13:43:29.085Z,110.67
2022-11-30T13:46:05.936Z,106.70
2022-11-30T13:48:37.662Z,111.40
2022-11-30T13:51:05.051Z,103.63
2022-11-30T13:53:38.627Z,103.53
2022-11-30T13:56:17.390Z,105.30
2022-11-30T13:59:22.660Z,97.87
2022-11-30T14:01:50.165Z,98.00
2022-11-30T14:04:31.534Z,100.90
2022-11-30T14:07:00.712Z,107.63
2022-11-30T14:09:42.947Z,112.83
2022-11-30T14:12:31.466Z,112.50
2022-11-30T14:15:04.058Z,102.30
2022-11-30T14:17:33.914Z,105.87
2022-11-30T14:20:37.761Z,103.20
2022-11-30T14:23:07.423Z,104.67
2022-11-30T14:25:35.470Z,92.90
2022-11-30T14:28:05.669Z,102.60
2022-11-30T14:30:33.951Z,101.90
2022-11-30T14:33:06.514Z,100.70
2022-11-30T14:35:33.587Z,111.70
2022-11-30T14:38:01.099Z,103.70
2022-11-30T14:40:30.589Z,95.40
2022-11-30T14:43:02.990Z,94.93
2022-11-30T14:45:32.041Z,100.60
2022-11-30T14:48:06.374Z,105.80
2022-11-30T14:50:33.530Z,102.33
2022-11-30T14:53:26.793Z,100.77
2022-11-30T14:56:12.143Z,100.87
2022-11-30T14:58:52.559Z,110.53
2022-11-30T15:01:21.952Z,102.73
2022-11-30T15:03:51.345Z,109.70
2022-11-30T15:06:19.960Z,106.20
2022-11-30T15:08:53.765Z,105.13
2022-11-30T15:11:21.577Z,100.53
2022-11-30T15:13:50.962Z,105.07
2022-11-30T15:16:30.579Z,98.00
2022-11-30T15:18:58.958Z,99.17
2022-11-30T15:21:30.542Z,100.23
2022-11-30T15:24:00.000Z,95.57
2022-11-30T15:26:33.360Z,92.13
2022-11-30T15:29:16.794Z,99.33
2022-11-30T15:31:48.279Z,90.73
2022-11-30T15:34:21.235Z,89.57
2022-11-30T15:36:48.315Z,94.03
2022-11-30T15:39:22.453Z,107.27
2022-11-30T15:42:00.259Z,92.10
2022-11-30T15:44:37.979Z,92.17
2022-11-30T15:47:08.026Z,93.03
2022-11-30T15:49:36.299Z,88.77
2022-11-30T15:52:04.721Z,82.47
2022-11-30T15:54:53.936Z,87.93
2022-11-30T15:57:21.718Z,86.73
2022-11-30T16:00:19.054Z,101.50
2022-11-30T16:02:45.698Z,89.20
2022-11-30T16:05:14.465Z,93.13
2022-11-30T16:07:59.872Z,86.70
2022-11-30T16:10:35.612Z,87.63
2022-11-30T16:13:02.469Z,82.37
2022-11-30T16:15:31.700Z,92.30
2022-11-30T16:18:18.860Z,91.03
2022-11-30T16:20:48.145Z,97.07
2022-11-30T16:23:15.720Z,91.53
2022-11-30T16:25:43.306Z,87.23
2022-11-30T16:28:11.294Z,93.03
2022-11-30T16:30:38.410Z,91.20
2022-11-30T16:33:05.329Z,85.17
2022-11-30T16:35:42.096Z,84.77
2022-11-30T16:38:08.687Z,90.40
2022-11-30T16:40:38.847Z,90.93
2022-11-30T16:43:06.040Z,81.10
2022-11-30T16:45:37.896Z,87.23
2022-11-30T16:48:05.359Z,87.73
2022-11-30T16:50:34.563Z,86.63
2022-11-30T16:53:03.140Z,91.53
2022-11-30T16:55:34.590Z,88.97
2022-11-30T16:58:01.870Z,87.97
2022-11-30T17:00:28.961Z,79.00
2022-11-30T17:03:05.057Z,72.97
2022-11-30T17:05:32.370Z,71.67
2022-11-30T17:07:59.255Z,73.07
2022-11-30T17:10:26.440Z,72.40
2022-11-30T17:12:52.952Z,71.60
2022-11-30T17:15:23.496Z,63.57
2022-11-30T17:17:50.377Z,62.17
2022-11-30T17:20:17.784Z,66.60
2022-11-30T17:22:44.648Z,69.20
2022-11-30T17:25:17.386Z,59.70
2022-11-30T17:27:44.528Z,64.23
2022-11-30T17:30:13.576Z,64.67
2022-11-30T17:32:40.094Z,66.00
2022-11-30T17:35:08.152Z,65.77
2022-11-30T17:37:35.121Z,63.53
2022-11-30T17:40:04.049Z,66.03
2022-11-30T17:42:31.261Z,65.70
2022-11-30T17:44:57.852Z,65.43
2022-11-30T17:47:24.430Z,66.87
2022-11-30T17:49:51.432Z,65.23
2022-11-30T17:52:18.242Z,76.57
2022-11-30T17:54:44.742Z,71.07
2022-11-30T17:57:11.254Z,69.83
2022-11-30T17:59:37.719Z,72.93
2022-11-30T18:02:04.267Z,72.93
2022-11-30T18:04:30.940Z,77.40
2022-11-30T18:06:57.497Z,78.63
2022-11-30T18:09:24.300Z,82.90
2022-11-30T18:11:50.769Z,76.67
2022-11-30T18:14:17.256Z,76.13
2022-11-30T18:16:43.828Z,80.37
2022-11-30T18:19:14.890Z,75.67
2022-11-30T18:21:44.126Z,67.50
2022-11-30T18:24:12.039Z,79.87
2022-11-30T18:26:39.029Z,75.37
2022-11-30T18:29:06.175Z,67.90
2022-11-30T18:31:32.728Z,65.47
2022-11-30T18:34:05.003Z,72.27
2022-11-30T18:36:33.252Z,71.17
2022-11-30T18:39:00.656Z,74.20
2022-11-30T18:41:28.608Z,71.20
2022-11-30T18:43:55.323Z,70.33
2022-11-30T18:46:22.152Z,70.83
2022-11-30T18:48:50.575Z,74.13
2022-11-30T18:51:23.344Z,64.70
2022-11-30T18:53:57.422Z,67.13
2022-11-30T18:56:28.176Z,69.43
2022-11-30T18:58:56.683Z,62.63
2022-11-30T19:01:24.147Z,69.07
2022-11-30T19:04:02.494Z,60.70
2022-11-30T19:06:29.981Z,60.90
2022-11-30T19:08:57.145Z,63.17
2022-11-30T19:11:23.688Z,64.90
2022-11-30T19:13:54.987Z,60.67
2022-11-30T19:16:22.014Z,59.37
2022-11-30T19:18:48.756Z,59.30
2022-11-30T19:21:17.126Z,64.87
2022-11-30T19:23:44.807Z,61.30
2022-11-30T19:26:12.012Z,59.90
2022-11-30T19:28:39.658Z,61.40
2022-11-30T19:31:17.783Z,55.73
2022-11-30T19:33:46.849Z,60.27
2022-11-30T19:36:16.376Z,57.20
2022-11-30T19:38:42.911Z,64.80
2022-11-30T19:41:11.334Z,58.83
2022-11-30T19:43:38.219Z,66.13
2022-11-30T19:46:05.895Z,57.73
2022-11-30T19:48:33.568Z,62.23
2022-11-30T19:51:03.634Z,58.97
2022-11-30T19:53:32.120Z,58.80
2022-11-30T19:55:58.791Z,59.80
2022-11-30T19:58:25.310Z,53.47
2022-11-30T20:00:51.745Z,55.10
2022-11-30T20:03:18.757Z,60.90
2022-11-30T20:05:49.747Z,52.60
2022-11-30T20:08:16.741Z,55.73
2022-11-30T20:10:43.216Z,54.03
2022-11-30T20:13:09.709Z,47.47
2022-11-30T20:15:39.690Z,51.07
2022-11-30T20:18:07.422Z,52.80
2022-11-30T20:20:34.833Z,52.67
2022-11-30T20:23:04.651Z,50.70
2022-11-30T20:25:32.896Z,61.23
2022-11-30T20:28:00.169Z,55.93
2022-11-30T20:30:27.311Z,57.30
2022-11-30T20:32:53.851Z,59.27
2022-11-30T20:35:20.317Z,74.97
2022-11-30T20:37:46.884Z,74.37
2022-11-30T20:40:13.540Z,82.47
2022-11-30T20:42:39.989Z,86.53
2022-11-30T20:45:07.319Z,90.80
2022-11-30T20:47:36.581Z,103.40
2022-11-30T20:50:04.934Z,101.80
2022-11-30T20:52:31.516Z,96.43
2022-11-30T20:54:57.987Z,112.93
2022-11-30T20:57:24.647Z,102.63
2022-11-30T20:59:51.078Z,111.97
2022-11-30T21:02:17.705Z,126.93
2022-11-30T21:04:44.236Z,117.53
2022-11-30T21:07:10.682Z,115.23
2022-11-30T21:09:37.193Z,116.63
2022-11-30T21:12:03.933Z,116.37
2022-11-30T21:14:30.468Z,105.00
2022-11-30T21:16:57.024Z,114.13
2022-11-30T21:19:23.564Z,108.47
2022-11-30T21:21:50.120Z,103.67
2022-11-30T21:24:16.581Z,108.83
2022-11-30T21:26:43.856Z,112.33
2022-11-30T21:29:12.994Z,99.27
2022-11-30T21:31:39.838Z,105.60
2022-11-30T21:34:06.575Z,99.20
2022-11-30T21:36:33.232Z,99.57
2022-11-30T21:39:05.953Z,102.80
2022-11-30T21:41:39.365Z,98.77
2022-11-30T21:44:07.968Z,86.97
2022-11-30T21:46:34.641Z,91.17
2022-11-30T21:49:02.216Z,91.70
2022-11-30T21:51:31.956Z,88.93
2022-11-30T21:54:04.932Z,84.97
2022-11-30T21:56:34.270Z,77.80
2022-11-30T21:59:03.356Z,83.40
2022-11-30T22:01:37.315Z,84.97
2022-11-30T22:04:06.229Z,83.70
2022-11-30T22:06:34.917Z,81.57
2022-11-30T22:09:07.787Z,84.17
2022-11-30T22:11:40.635Z,85.87
2022-11-30T22:14:11.802Z,79.17
2022-11-30T22:16:38.696Z,84.30
2022-11-30T22:19:06.639Z,81.20
2022-11-30T22:21:34.256Z,85.73
2022-11-30T22:24:10.410Z,89.40
2022-11-30T22:26:39.367Z,93.83
2022-11-30T22:29:15.327Z,91.30
2022-11-30T22:31:44.292Z,84.50
2022-11-30T22:34:11.436Z,88.97
2022-11-30T22:36:39.819Z,89.10
2022-11-30T22:39:12.338Z,93.73
2022-11-30T22:41:40.589Z,100.03
2022-11-30T22:44:07.242Z,90.20
2022-11-30T22:46:35.489Z,99.10
2022-11-30T22:49:04.211Z,95.70
2022-11-30T22:51:32.415Z,95.10
2022-11-30T22:54:00.155Z,89.40
2022-11-30T22:56:32.122Z,98.30
2022-11-30T22:59:00.895Z,100.10
2022-11-30T23:01:29.285Z,91.67
2022-11-30T23:04:01.055Z,90.37
2022-11-30T23:06:27.775Z,91.50
2022-11-30T23:08:54.332Z,90.10
2022-11-30T23:11:24.009Z,89.27
2022-11-30T23:13:51.461Z,89.83
2022-11-30T23:16:18.499Z,95.07
2022-11-30T23:18:50.715Z,91.87
2022-11-30T23:21:20.960Z,92.30
2022-11-30T23:23:47.656Z,92.60
2022-11-30T23:26:15.527Z,96.37
2022-11-30T23:28:44.088Z,90.77
2022-11-30T23:31:33.716Z,86.03
2022-11-30T23:33:59.994Z,86.27
2022-11-30T23:36:26.631Z,88.47
2022-11-30T23:38:58.704Z,84.97
2022-11-30T23:41:25.644Z,87.60
2022-11-30T23:43:52.705Z,88.40
2022-11-30T23:46:19.419Z,80.73
2022-11-30T23:48:45.968Z,84.00
2022-11-30T23:51:12.421Z,82.60
2022-11-30T23:53:38.978Z,80.10
2022-11-30T23:56:11.540Z,81.60
2022-11-30T23:58:39.567Z,76.47
